Time;durP1;ratioP1;P1;durP2;ratioP2;P2;SDS_P1;SDS_P2;PMS_P1;PMS_P2;Temp;Humidity;BMP_temperature;BMP_pressure;BME280_temperature;BME280_humidity;BME280_pressure;Samples;Min_cycle;Max_cycle;Signal;HPM_P1;HPM_P2
2022/05/21 00:01:32;;;;;;;4.00;3.33;;;;;;;;;;5061587;28;20201;-83
2022/05/21 00:03:59;;;;;;;3.97;3.67;;;;;;;;;;5061208;28;20288;-84
2022/05/21 00:06:27;;;;;;;3.03;2.83;;;;;;;;;;5061337;28;20201;-85
2022/05/21 00:08:54;;;;;;;5.65;3.47;;;;;;;;;;5061095;28;20226;-84
2022/05/21 00:11:21;;;;;;;7.95;5.40;;;;;;;;;;5059990;28;20202;-86
2022/05/21 00:13:49;;;;;;;3.67;3.38;;;;;;;;;;5062738;28;20209;-86
2022/05/21 00:16:18;;;;;;;3.38;3.17;;;;;;;;;;5063215;28;20321;-83
2022/05/21 00:18:46;;;;;;;4.32;3.28;;;;;;;;;;5064449;28;20221;-85
2022/05/21 00:21:14;;;;;;;3.20;2.97;;;;;;;;;;5064711;28;20202;-85
2022/05/21 00:23:42;;;;;;;2.55;2.45;;;;;;;;;;5063407;28;20205;-84
2022/05/21 00:26:11;;;;;;;3.88;3.22;;;;;;;;;;5064419;28;20261;-85
2022/05/21 00:28:41;;;;;;;2.85;2.63;;;;;;;;;;5062792;28;20229;-85
2022/05/21 00:31:10;;;;;;;4.97;3.25;;;;;;;;;;5064895;28;20193;-85
2022/05/21 00:33:40;;;;;;;3.45;3.15;;;;;;;;;;5065906;28;20198;-86
2022/05/21 00:36:08;;;;;;;2.83;2.60;;;;;;;;;;5085073;28;20595;-86
2022/05/21 00:38:35;;;;;;;6.22;2.85;;;;;;;;;;5083937;28;20228;-85
2022/05/21 00:41:04;;;;;;;3.08;2.85;;;;;;;;;;5085366;28;20205;-86
2022/05/21 00:43:40;;;;;;;3.45;3.20;;;;;;;;;;5084516;28;20173;-85
2022/05/21 00:46:10;;;;;;;3.65;3.38;;;;;;;;;;5084230;28;20223;-86
2022/05/21 00:48:40;;;;;;;3.25;3.05;;;;;;;;;;5083892;28;20228;-86
2022/05/21 00:51:15;;;;;;;2.85;2.60;;;;;;;;;;5083534;28;20197;-85
2022/05/21 00:53:45;;;;;;;4.07;3.03;;;;;;;;;;5084660;28;20609;-85
2022/05/21 00:56:13;;;;;;;2.55;2.25;;;;;;;;;;5083642;28;20234;-86
2022/05/21 01:01:27;;;;;;;2.53;2.42;;;;;;;;;;5083713;28;20207;-85
2022/05/21 01:03:55;;;;;;;2.95;2.75;;;;;;;;;;5078471;28;20202;-85
2022/05/21 01:06:23;;;;;;;3.47;3.17;;;;;;;;;;5063644;28;20204;-86
2022/05/21 01:08:50;;;;;;;3.35;3.10;;;;;;;;;;5064815;28;20214;-86
2022/05/21 01:11:20;;;;;;;4.00;3.55;;;;;;;;;;5064042;28;20201;-85
2022/05/21 01:13:50;;;;;;;3.58;3.28;;;;;;;;;;5063268;28;20233;-85
2022/05/21 01:16:18;;;;;;;3.22;2.90;;;;;;;;;;5064213;28;20202;-86
2022/05/21 01:18:45;;;;;;;2.25;1.90;;;;;;;;;;5064727;28;20214;-85
2022/05/21 01:21:14;;;;;;;3.08;2.80;;;;;;;;;;5063910;28;20204;-85
2022/05/21 01:23:43;;;;;;;3.60;3.30;;;;;;;;;;5064112;28;20209;-84
2022/05/21 01:26:16;;;;;;;2.45;2.25;;;;;;;;;;5064328;28;20218;-85
2022/05/21 01:28:43;;;;;;;3.33;3.03;;;;;;;;;;5063605;28;20217;-83
2022/05/21 01:31:11;;;;;;;3.13;2.88;;;;;;;;;;5065464;28;20202;-84
2022/05/21 01:33:43;;;;;;;2.70;2.50;;;;;;;;;;5066655;28;20201;-85
2022/05/21 01:36:10;;;;;;;2.72;2.53;;;;;;;;;;5084611;28;20280;-84
2022/05/21 01:38:39;;;;;;;4.47;3.42;;;;;;;;;;5084837;28;20768;-86
2022/05/21 01:41:09;;;;;;;3.33;3.03;;;;;;;;;;5084735;28;20209;-85
2022/05/21 01:46:22;;;;;;;3.60;3.30;;;;;;;;;;5085559;28;20196;-84
2022/05/21 01:48:50;;;;;;;2.40;2.30;;;;;;;;;;5083638;28;20228;-83
2022/05/21 01:51:17;;;;;;;2.38;2.17;;;;;;;;;;5083609;28;20227;-84
2022/05/21 01:53:45;;;;;;;2.47;2.28;;;;;;;;;;5084137;28;20201;-84
2022/05/21 01:56:14;;;;;;;2.45;2.33;;;;;;;;;;5083941;28;20200;-85
2022/05/21 01:58:42;;;;;;;2.45;1.92;;;;;;;;;;5083928;28;20224;-85
2022/05/21 02:01:11;;;;;;;6.22;3.40;;;;;;;;;;5082850;28;20547;-85
2022/05/21 02:03:39;;;;;;;2.42;2.30;;;;;;;;;;5082352;28;20554;-85
2022/05/21 02:06:07;;;;;;;2.50;2.30;;;;;;;;;;5083102;28;20204;-85
2022/05/21 02:08:35;;;;;;;2.38;2.28;;;;;;;;;;5083291;28;20224;-85
2022/05/21 02:11:03;;;;;;;2.97;2.65;;;;;;;;;;5083801;28;20560;-85
2022/05/21 02:13:34;;;;;;;1.98;1.88;;;;;;;;;;5083188;28;20584;-86
2022/05/21 02:16:01;;;;;;;2.10;1.90;;;;;;;;;;5078333;28;20536;-85
2022/05/21 02:18:29;;;;;;;2.00;1.88;;;;;;;;;;5081353;28;20239;-85
2022/05/21 02:20:56;;;;;;;2.35;2.20;;;;;;;;;;5079841;28;20211;-84
2022/05/21 02:23:24;;;;;;;2.10;2.00;;;;;;;;;;5080562;28;20216;-84
2022/05/21 02:25:53;;;;;;;4.97;2.03;;;;;;;;;;5080063;28;20205;-85
2022/05/21 02:28:20;;;;;;;2.40;2.20;;;;;;;;;;5080292;28;20213;-86
2022/05/21 02:30:50;;;;;;;3.15;2.95;;;;;;;;;;5080080;28;20283;-86
2022/05/21 02:33:17;;;;;;;3.88;2.80;;;;;;;;;;5080300;28;20228;-85
2022/05/21 02:35:45;;;;;;;3.28;2.97;;;;;;;;;;5078929;28;20203;-86
2022/05/21 02:40:57;;;;;;;3.40;3.20;;;;;;;;;;5080889;28;20250;-85
2022/05/21 02:43:26;;;;;;;3.22;3.00;;;;;;;;;;5079921;28;20653;-86
2022/05/21 02:45:54;;;;;;;2.75;2.55;;;;;;;;;;5080263;28;20204;-86
2022/05/21 02:48:25;;;;;;;2.55;2.10;;;;;;;;;;5079851;28;20221;-86
2022/05/21 02:50:52;;;;;;;2.22;2.13;;;;;;;;;;5080322;28;20185;-86
2022/05/21 02:53:20;;;;;;;2.78;2.58;;;;;;;;;;5079732;28;20793;-87
2022/05/21 02:55:49;;;;;;;2.63;2.42;;;;;;;;;;5080723;28;20262;-86
2022/05/21 02:58:16;;;;;;;2.42;2.22;;;;;;;;;;5080731;28;20268;-86
2022/05/21 03:00:45;;;;;;;2.50;2.28;;;;;;;;;;5080936;28;20197;-86
2022/05/21 03:03:14;;;;;;;2.95;2.65;;;;;;;;;;5080378;28;20200;-86
2022/05/21 03:05:42;;;;;;;2.78;2.58;;;;;;;;;;5081188;28;20195;-86
2022/05/21 03:10:54;;;;;;;1.88;1.77;;;;;;;;;;5048099;28;20258;-86
2022/05/21 03:13:22;;;;;;;1.90;1.70;;;;;;;;;;5081233;28;20185;-86
2022/05/21 03:15:49;;;;;;;2.97;2.78;;;;;;;;;;5081418;28;20286;-86
2022/05/21 03:18:20;;;;;;;2.65;2.45;;;;;;;;;;5081028;28;20228;-86
2022/05/21 03:20:47;;;;;;;2.13;2.03;;;;;;;;;;5081383;28;20614;-86
2022/05/21 03:23:15;;;;;;;2.38;2.17;;;;;;;;;;5080881;28;20231;-86
2022/05/21 03:25:43;;;;;;;2.65;2.42;;;;;;;;;;5080274;28;20778;-86
2022/05/21 03:28:15;;;;;;;3.17;2.97;;;;;;;;;;5080212;28;20221;-86
2022/05/21 03:30:43;;;;;;;2.97;2.53;;;;;;;;;;5081066;28;20189;-86
2022/05/21 03:33:10;;;;;;;2.30;2.20;;;;;;;;;;5080821;28;20207;-87
2022/05/21 03:35:41;;;;;;;1.90;1.80;;;;;;;;;;5099508;28;20200;-86
2022/05/21 03:38:09;;;;;;;1.92;1.83;;;;;;;;;;5100808;28;20219;-87
2022/05/21 03:40:36;;;;;;;1.73;1.63;;;;;;;;;;5100651;28;20208;-86
2022/05/21 03:43:04;;;;;;;1.50;1.40;;;;;;;;;;5099434;28;20210;-86
2022/05/21 03:45:31;;;;;;;2.00;1.90;;;;;;;;;;5100015;28;20649;-87
2022/05/21 03:47:59;;;;;;;1.38;1.33;;;;;;;;;;5102027;28;20604;-86
2022/05/21 03:50:31;;;;;;;1.73;1.63;;;;;;;;;;5103542;28;20204;-86
2022/05/21 03:53:00;;;;;;;1.20;1.10;;;;;;;;;;5104448;28;20185;-86
2022/05/21 03:55:28;;;;;;;1.10;1.10;;;;;;;;;;5103561;28;20653;-86
2022/05/21 03:57:56;;;;;;;1.50;1.40;;;;;;;;;;5104489;28;20263;-85
2022/05/21 04:00:23;;;;;;;1.20;1.20;;;;;;;;;;5104400;28;20619;-86
2022/05/21 04:02:50;;;;;;;1.50;1.40;;;;;;;;;;5103750;28;20209;-85
2022/05/21 04:05:18;;;;;;;1.30;1.30;;;;;;;;;;5103733;28;20204;-86
2022/05/21 04:07:46;;;;;;;1.10;1.10;;;;;;;;;;5103597;28;20216;-84
2022/05/21 04:10:19;;;;;;;1.70;1.60;;;;;;;;;;5104286;28;20200;-85
2022/05/21 04:12:47;;;;;;;2.00;1.50;;;;;;;;;;5103258;28;20185;-85
2022/05/21 04:15:15;;;;;;;1.70;1.60;;;;;;;;;;5104176;28;20196;-86
2022/05/21 04:17:42;;;;;;;1.75;1.40;;;;;;;;;;5103782;28;20225;-86
2022/05/21 04:20:15;;;;;;;2.65;1.80;;;;;;;;;;5103592;28;20224;-87
2022/05/21 04:22:43;;;;;;;1.42;1.42;;;;;;;;;;5103164;28;20565;-86
2022/05/21 04:25:11;;;;;;;1.73;1.50;;;;;;;;;;5104242;28;20219;-86
2022/05/21 04:27:40;;;;;;;1.23;1.23;;;;;;;;;;5103028;28;20227;-86
2022/05/21 04:30:11;;;;;;;1.95;1.85;;;;;;;;;;5103003;28;20209;-87
2022/05/21 04:32:39;;;;;;;1.30;1.30;;;;;;;;;;5103164;28;20176;-86
2022/05/21 04:35:08;;;;;;;3.70;1.95;;;;;;;;;;5102057;28;20675;-86
2022/05/21 04:37:37;;;;;;;1.88;1.77;;;;;;;;;;5103042;28;20592;-86
2022/05/21 04:40:07;;;;;;;1.70;1.60;;;;;;;;;;5102515;28;20232;-85
2022/05/21 04:42:35;;;;;;;1.60;1.50;;;;;;;;;;5102821;28;20207;-86
2022/05/21 04:45:04;;;;;;;1.83;1.60;;;;;;;;;;5102927;28;20204;-85
2022/05/21 04:47:32;;;;;;;1.77;1.67;;;;;;;;;;5103101;28;20231;-86
2022/05/21 04:49:59;;;;;;;2.53;2.33;;;;;;;;;;5102797;28;20562;-86
2022/05/21 04:52:26;;;;;;;1.85;1.75;;;;;;;;;;5101109;28;20196;-87
2022/05/21 04:54:54;;;;;;;2.47;1.70;;;;;;;;;;5085236;22;20229;-81
2022/05/21 04:57:21;;;;;;;1.88;1.77;;;;;;;;;;5057933;28;20202;-78
2022/05/21 04:59:48;;;;;;;1.92;1.83;;;;;;;;;;5056568;28;20355;-78
2022/05/21 05:02:17;;;;;;;3.05;1.83;;;;;;;;;;5057405;28;20205;-78
2022/05/21 05:04:44;;;;;;;3.33;3.10;;;;;;;;;;5056848;28;20222;-78
2022/05/21 05:07:12;;;;;;;2.83;1.95;;;;;;;;;;5058403;28;20194;-82
2022/05/21 05:09:40;;;;;;;1.67;1.58;;;;;;;;;;5059015;28;20205;-80
2022/05/21 05:12:09;;;;;;;1.90;1.75;;;;;;;;;;5056468;28;20217;-81
2022/05/21 05:14:37;;;;;;;1.65;1.55;;;;;;;;;;5058738;28;20405;-83
2022/05/21 05:17:05;;;;;;;2.30;1.80;;;;;;;;;;5058779;28;20650;-81
2022/05/21 05:19:34;;;;;;;2.67;1.70;;;;;;;;;;5058081;28;20217;-82
2022/05/21 05:22:01;;;;;;;3.33;2.28;;;;;;;;;;5058579;28;20198;-81
2022/05/21 05:24:28;;;;;;;2.40;2.20;;;;;;;;;;5057059;28;20233;-81
2022/05/21 05:26:56;;;;;;;2.33;1.77;;;;;;;;;;5057904;28;20273;-84
2022/05/21 05:29:23;;;;;;;2.47;2.28;;;;;;;;;;5058485;28;20247;-80
2022/05/21 05:31:51;;;;;;;3.22;1.83;;;;;;;;;;5057725;28;20205;-77
2022/05/21 05:34:18;;;;;;;1.55;1.45;;;;;;;;;;5057232;28;20229;-78
2022/05/21 05:36:47;;;;;;;3.40;1.75;;;;;;;;;;5057989;28;20240;-81
2022/05/21 05:39:16;;;;;;;2.33;2.17;;;;;;;;;;5058256;28;20225;-81
2022/05/21 05:41:43;;;;;;;2.33;1.73;;;;;;;;;;5058201;28;20204;-78
2022/05/21 05:44:11;;;;;;;2.28;2.10;;;;;;;;;;5057054;28;20221;-78
2022/05/21 05:46:38;;;;;;;2.05;1.85;;;;;;;;;;5056954;28;20586;-79
2022/05/21 05:49:05;;;;;;;2.30;2.10;;;;;;;;;;5057214;28;20662;-77
2022/05/21 05:51:33;;;;;;;4.03;2.60;;;;;;;;;;5057359;28;20200;-78
2022/05/21 05:54:02;;;;;;;2.05;1.95;;;;;;;;;;5056379;28;20230;-79
2022/05/21 05:56:29;;;;;;;1.73;1.63;;;;;;;;;;5057292;28;20599;-78
2022/05/21 06:01:42;;;;;;;2.47;2.13;;;;;;;;;;5057517;28;20195;-78
2022/05/21 06:04:09;;;;;;;2.10;1.80;;;;;;;;;;5057091;28;20674;-79
2022/05/21 06:06:36;;;;;;;1.60;1.50;;;;;;;;;;5057168;28;20292;-80
2022/05/21 06:09:06;;;;;;;1.85;1.60;;;;;;;;;;5057127;28;20208;-78
2022/05/21 06:11:37;;;;;;;1.80;1.70;;;;;;;;;;5056520;28;20201;-79
2022/05/21 06:14:05;;;;;;;3.38;1.80;;;;;;;;;;5056865;28;20217;-78
2022/05/21 06:16:33;;;;;;;1.70;1.60;;;;;;;;;;5057075;28;20208;-81
2022/05/21 06:19:00;;;;;;;4.28;2.58;;;;;;;;;;5059250;28;20212;-80
2022/05/21 06:21:28;;;;;;;1.38;1.27;;;;;;;;;;5056686;28;20206;-79
2022/05/21 06:23:55;;;;;;;1.75;1.65;;;;;;;;;;5055645;28;20221;-79
2022/05/21 06:26:24;;;;;;;2.67;2.28;;;;;;;;;;5056642;28;20235;-77
2022/05/21 06:28:51;;;;;;;1.60;1.50;;;;;;;;;;5056707;28;20251;-78
2022/05/21 06:31:18;;;;;;;1.65;1.55;;;;;;;;;;5056173;28;20206;-78
2022/05/21 06:33:46;;;;;;;1.88;1.70;;;;;;;;;;5056701;28;20222;-78
2022/05/21 06:36:16;;;;;;;2.83;2.22;;;;;;;;;;5055616;28;20202;-79
2022/05/21 06:38:44;;;;;;;2.13;1.90;;;;;;;;;;5056476;28;20182;-79
2022/05/21 06:41:12;;;;;;;1.60;1.50;;;;;;;;;;5056092;28;20279;-80
2022/05/21 06:43:40;;;;;;;1.75;1.65;;;;;;;;;;5056589;28;20612;-81
2022/05/21 06:46:08;;;;;;;4.03;1.67;;;;;;;;;;5056259;28;20247;-80
2022/05/21 06:48:35;;;;;;;2.22;2.03;;;;;;;;;;5055693;28;20201;-80
2022/05/21 06:51:05;;;;;;;2.15;1.92;;;;;;;;;;5055782;28;20314;-79
2022/05/21 06:53:33;;;;;;;2.83;1.67;;;;;;;;;;5057113;28;20627;-79
2022/05/21 06:56:01;;;;;;;2.83;2.20;;;;;;;;;;5058786;28;20228;-80
2022/05/21 06:58:28;;;;;;;3.03;2.80;;;;;;;;;;5056994;28;20204;-80
2022/05/21 07:00:56;;;;;;;2.53;2.22;;;;;;;;;;5055817;28;20224;-80
2022/05/21 07:03:24;;;;;;;2.28;2.13;;;;;;;;;;5055362;28;20219;-78
2022/05/21 07:08:36;;;;;;;1.80;1.70;;;;;;;;;;5075839;28;20204;-79
2022/05/21 07:11:03;;;;;;;3.90;2.08;;;;;;;;;;5076299;28;20193;-78
2022/05/21 07:13:31;;;;;;;2.17;2.00;;;;;;;;;;5075716;28;20232;-79
2022/05/21 07:16:00;;;;;;;1.98;1.88;;;;;;;;;;5075822;28;20200;-79
2022/05/21 07:18:28;;;;;;;2.08;1.98;;;;;;;;;;5075101;28;20201;-81
2022/05/21 07:20:56;;;;;;;1.60;1.50;;;;;;;;;;5074425;28;20238;-80
2022/05/21 07:23:26;;;;;;;1.85;1.75;;;;;;;;;;5077072;28;20220;-80
2022/05/21 07:25:55;;;;;;;1.83;1.70;;;;;;;;;;5079285;28;20201;-82
2022/05/21 07:28:22;;;;;;;1.48;1.40;;;;;;;;;;5079590;28;20621;-81
2022/05/21 07:30:50;;;;;;;1.63;1.52;;;;;;;;;;5079597;28;20208;-80
2022/05/21 07:33:20;;;;;;;2.10;1.95;;;;;;;;;;5079257;28;21930;-80
2022/05/21 07:35:48;;;;;;;1.95;1.50;;;;;;;;;;5078645;28;20211;-80
2022/05/21 07:38:17;;;;;;;1.40;1.30;;;;;;;;;;5078852;28;20276;-80
2022/05/21 07:40:46;;;;;;;1.70;1.55;;;;;;;;;;5078099;28;20231;-80
2022/05/21 07:43:16;;;;;;;1.77;1.60;;;;;;;;;;5078300;28;20204;-82
2022/05/21 07:45:45;;;;;;;2.15;1.80;;;;;;;;;;5078616;28;20197;-80
2022/05/21 07:48:15;;;;;;;2.30;1.98;;;;;;;;;;5077406;28;20201;-80
2022/05/21 07:50:47;;;;;;;1.58;1.48;;;;;;;;;;5078218;28;20227;-80
2022/05/21 07:53:18;;;;;;;2.15;1.73;;;;;;;;;;5078570;28;20556;-80
2022/05/21 07:55:47;;;;;;;4.03;2.00;;;;;;;;;;5077555;28;20196;-80
2022/05/21 07:58:15;;;;;;;1.98;1.88;;;;;;;;;;5078052;28;20220;-80
2022/05/21 08:00:43;;;;;;;1.80;1.60;;;;;;;;;;5078812;28;20228;-81
2022/05/21 08:03:11;;;;;;;1.70;1.60;;;;;;;;;;5079579;28;20669;-80
2022/05/21 08:05:40;;;;;;;1.77;1.67;;;;;;;;;;5078576;28;20565;-80
2022/05/21 08:08:10;;;;;;;1.35;1.25;;;;;;;;;;5079013;28;20201;-81
2022/05/21 08:10:38;;;;;;;1.60;1.50;;;;;;;;;;5078736;28;20196;-81
2022/05/21 08:13:06;;;;;;;2.60;1.70;;;;;;;;;;5077064;28;20215;-83
2022/05/21 08:15:34;;;;;;;1.60;1.50;;;;;;;;;;5078534;28;20197;-83
2022/05/21 08:18:04;;;;;;;2.20;1.90;;;;;;;;;;5079084;28;20250;-83
2022/05/21 08:20:32;;;;;;;4.13;1.60;;;;;;;;;;5079270;28;20227;-83
2022/05/21 08:28:32;;;;;;;1.23;1.23;;;;;;;;;;5046745;28;20201;-84
2022/05/21 08:31:01;;;;;;;1.40;1.10;;;;;;;;;;5039340;28;20198;-84
2022/05/21 08:33:28;;;;;;;1.85;1.75;;;;;;;;;;5038229;28;20218;-84
2022/05/21 08:35:56;;;;;;;3.75;1.80;;;;;;;;;;5038617;28;20183;-84
2022/05/21 08:38:23;;;;;;;1.73;1.63;;;;;;;;;;5039380;28;20194;-83
2022/05/21 08:40:57;;;;;;;1.90;1.48;;;;;;;;;;5038243;28;20218;-83
2022/05/21 08:43:30;;;;;;;1.75;1.65;;;;;;;;;;5037369;28;20217;-81
2022/05/21 08:46:08;;;;;;;2.90;1.88;;;;;;;;;;5038175;28;20206;-83
2022/05/21 08:48:39;;;;;;;2.13;1.75;;;;;;;;;;5039467;28;20197;-81
2022/05/21 08:51:12;;;;;;;5.60;3.45;;;;;;;;;;5039090;28;20214;-84
2022/05/21 08:53:49;;;;;;;3.17;2.10;;;;;;;;;;5039393;28;20218;-82
2022/05/21 08:56:18;;;;;;;1.73;1.52;;;;;;;;;;5039673;28;20213;-84
2022/05/21 08:58:49;;;;;;;1.50;1.40;;;;;;;;;;5038038;28;20786;-80
2022/05/21 09:01:20;;;;;;;2.30;1.40;;;;;;;;;;5040758;28;20242;-80
2022/05/21 09:03:48;;;;;;;1.70;1.60;;;;;;;;;;5042088;28;20226;-79
2022/05/21 09:06:30;;;;;;;2.03;1.13;;;;;;;;;;5041323;28;20210;-80
2022/05/21 09:09:03;;;;;;;1.92;1.77;;;;;;;;;;5042875;28;20190;-80
2022/05/21 09:11:36;;;;;;;2.38;2.17;;;;;;;;;;5041228;28;20190;-80
2022/05/21 09:14:10;;;;;;;1.23;1.20;;;;;;;;;;5039640;28;20222;-80
2022/05/21 09:17:00;;;;;;;1.20;1.10;;;;;;;;;;5037066;28;20186;-79
2022/05/21 09:19:33;;;;;;;1.40;1.30;;;;;;;;;;5038600;28;20605;-81
2022/05/21 09:22:03;;;;;;;3.58;1.83;;;;;;;;;;5036711;28;20206;-79
2022/05/21 09:24:40;;;;;;;1.60;1.50;;;;;;;;;;5036712;28;20226;-80
2022/05/21 09:27:25;;;;;;;1.08;1.08;;;;;;;;;;5036390;28;20213;-84
2022/05/21 09:29:55;;;;;;;3.13;2.00;;;;;;;;;;5034884;28;20202;-84
2022/05/21 09:32:36;;;;;;;3.28;2.78;;;;;;;;;;5034230;28;20205;-84
2022/05/21 09:35:11;;;;;;;2.90;1.60;;;;;;;;;;5049155;28;20681;-84
2022/05/21 09:37:39;;;;;;;1.90;1.60;;;;;;;;;;5054598;28;20208;-86
2022/05/21 09:40:34;;;;;;;3.92;3.15;;;;;;;;;;5053900;28;20204;-85
2022/05/21 09:45:49;;;;;;;1.77;1.67;;;;;;;;;;5053435;28;20749;-85
2022/05/21 09:48:20;;;;;;;2.60;1.60;;;;;;;;;;5054652;28;20229;-84
2022/05/21 09:50:52;;;;;;;2.05;1.42;;;;;;;;;;5055390;28;20186;-84
2022/05/21 09:53:39;;;;;;;2.25;1.65;;;;;;;;;;5054639;28;20222;-85
2022/05/21 09:56:09;;;;;;;7.57;3.33;;;;;;;;;;5054122;28;20205;-85
2022/05/21 09:58:43;;;;;;;3.15;2.10;;;;;;;;;;5054993;28;20202;-85
2022/05/21 10:01:17;;;;;;;2.67;1.77;;;;;;;;;;5054435;28;20190;-85
2022/05/21 10:03:50;;;;;;;2.45;2.25;;;;;;;;;;5053326;28;20227;-85
2022/05/21 10:06:22;;;;;;;2.67;2.05;;;;;;;;;;5054394;28;20201;-84
2022/05/21 10:11:44;;;;;;;3.30;1.92;;;;;;;;;;5053986;28;20573;-85
2022/05/21 10:14:18;;;;;;;4.38;2.88;;;;;;;;;;5053564;28;20221;-84
2022/05/21 10:16:49;;;;;;;2.08;1.58;;;;;;;;;;5053893;28;20541;-84
2022/05/21 10:19:23;;;;;;;1.85;1.75;;;;;;;;;;5054044;28;20196;-84
2022/05/21 10:22:01;;;;;;;2.88;2.35;;;;;;;;;;5052695;28;20287;-85
2022/05/21 10:24:42;;;;;;;4.35;2.80;;;;;;;;;;5053240;28;20233;-86
2022/05/21 10:27:23;;;;;;;2.55;2.35;;;;;;;;;;5052881;28;20201;-84
2022/05/21 10:30:05;;;;;;;2.78;2.17;;;;;;;;;;5054215;28;20638;-84
2022/05/21 10:32:57;;;;;;;2.28;2.10;;;;;;;;;;5052666;28;20186;-84
2022/05/21 10:35:40;;;;;;;1.65;1.40;;;;;;;;;;5053356;28;20197;-85
2022/05/21 10:38:14;;;;;;;3.00;2.25;;;;;;;;;;5053212;28;20193;-87
2022/05/21 10:40:48;;;;;;;3.05;2.30;;;;;;;;;;5052435;28;20208;-85
2022/05/21 10:43:36;;;;;;;2.08;1.90;;;;;;;;;;5052371;28;20212;-86
2022/05/21 10:46:15;;;;;;;3.20;2.78;;;;;;;;;;5053003;28;20190;-86
2022/05/21 10:49:02;;;;;;;4.93;2.10;;;;;;;;;;5052820;28;20638;-87
2022/05/21 10:51:33;;;;;;;2.25;2.03;;;;;;;;;;5052164;28;20197;-86
2022/05/21 10:54:26;;;;;;;3.38;2.30;;;;;;;;;;5052373;28;20256;-87
2022/05/21 10:57:08;;;;;;;2.17;2.03;;;;;;;;;;5051905;28;20654;-89
2022/05/21 11:00:04;;;;;;;1.98;1.50;;;;;;;;;;5052653;28;20190;-87
2022/05/21 11:03:24;;;;;;;1.40;1.30;;;;;;;;;;5052435;28;20228;-87
2022/05/21 11:06:09;;;;;;;3.10;2.50;;;;;;;;;;5049034;28;20248;-88
2022/05/21 11:08:42;;;;;;;2.70;2.30;;;;;;;;;;5052675;28;20201;-86
2022/05/21 11:11:25;;;;;;;2.22;2.03;;;;;;;;;;5052550;28;20208;-87
2022/05/21 11:13:59;;;;;;;2.67;2.10;;;;;;;;;;5051904;28;20213;-88
2022/05/21 11:16:30;;;;;;;3.47;2.50;;;;;;;;;;5052369;28;20229;-86
2022/05/21 11:19:06;;;;;;;3.75;2.30;;;;;;;;;;5052792;28;20631;-88
2022/05/21 11:21:37;;;;;;;2.92;2.20;;;;;;;;;;5051907;28;20193;-87
2022/05/21 11:24:09;;;;;;;2.60;2.38;;;;;;;;;;5052131;28;20255;-88
2022/05/21 11:26:41;;;;;;;2.88;2.50;;;;;;;;;;5051556;28;20229;-86
2022/05/21 11:29:13;;;;;;;2.80;2.60;;;;;;;;;;5052910;28;20197;-88
2022/05/21 11:37:29;;;;;;;2.95;2.60;;;;;;;;;;5052161;28;20201;-88
2022/05/21 11:39:58;;;;;;;2.83;2.47;;;;;;;;;;5052276;28;20201;-86
2022/05/21 11:42:28;;;;;;;2.22;2.03;;;;;;;;;;5051392;28;20247;-86
2022/05/21 11:44:56;;;;;;;2.50;2.30;;;;;;;;;;5052228;28;20224;-86
2022/05/21 11:47:50;;;;;;;4.30;3.50;;;;;;;;;;5052104;28;20201;-86
2022/05/21 11:50:31;;;;;;;3.28;2.65;;;;;;;;;;5032011;28;20232;-87
2022/05/21 11:53:26;;;;;;;2.83;2.60;;;;;;;;;;5031718;28;20201;-86
2022/05/21 11:56:01;;;;;;;3.50;2.70;;;;;;;;;;5031383;28;20297;-86
2022/05/21 11:59:25;;;;;;;3.15;2.78;;;;;;;;;;5032167;28;20190;-86
2022/05/21 12:02:21;;;;;;;4.20;2.58;;;;;;;;;;4951131;29;20212;-86
2022/05/21 12:04:58;;;;;;;3.47;2.40;;;;;;;;;;5055998;28;20317;-86
2022/05/21 12:07:55;;;;;;;2.45;2.22;;;;;;;;;;5071893;28;20208;-87
2022/05/21 12:10:28;;;;;;;3.60;2.50;;;;;;;;;;5075926;28;20557;-86
2022/05/21 12:13:15;;;;;;;2.60;2.40;;;;;;;;;;5075314;28;20188;-87
2022/05/21 12:15:47;;;;;;;4.65;2.28;;;;;;;;;;5076029;28;20192;-87
2022/05/21 12:18:38;;;;;;;3.45;2.22;;;;;;;;;;5075389;28;20240;-86
2022/05/21 12:21:07;;;;;;;2.33;2.13;;;;;;;;;;5075864;28;20185;-86
2022/05/21 12:24:05;;;;;;;2.65;2.00;;;;;;;;;;5074418;28;20221;-86
2022/05/21 12:26:34;;;;;;;1.95;1.80;;;;;;;;;;5075524;28;20550;-86
2022/05/21 12:29:13;;;;;;;2.85;2.05;;;;;;;;;;5075294;28;20255;-86
2022/05/21 12:31:46;;;;;;;3.15;2.33;;;;;;;;;;5074631;28;20193;-86
2022/05/21 12:34:35;;;;;;;2.28;2.08;;;;;;;;;;5067495;28;20221;-86
2022/05/21 12:37:15;;;;;;;2.58;1.95;;;;;;;;;;5055457;28;20190;-85
2022/05/21 12:39:57;;;;;;;2.47;2.20;;;;;;;;;;5055464;28;20288;-85
2022/05/21 12:42:27;;;;;;;2.25;1.95;;;;;;;;;;5054799;28;20198;-86
2022/05/21 12:44:55;;;;;;;1.92;1.58;;;;;;;;;;5054474;28;20228;-85
2022/05/21 12:47:29;;;;;;;1.95;1.80;;;;;;;;;;5054821;28;20200;-86
2022/05/21 12:49:58;;;;;;;4.78;2.15;;;;;;;;;;5056495;28;20553;-86
2022/05/21 12:52:41;;;;;;;3.13;2.13;;;;;;;;;;5054488;28;20211;-87
2022/05/21 12:55:21;;;;;;;2.70;2.10;;;;;;;;;;5054969;28;20229;-86
2022/05/21 12:57:50;;;;;;;4.38;2.00;;;;;;;;;;5054907;28;20626;-87
2022/05/21 13:00:19;;;;;;;2.35;2.00;;;;;;;;;;5054857;28;20198;-86
2022/05/21 13:02:50;;;;;;;2.17;1.80;;;;;;;;;;5054117;28;20209;-86
2022/05/21 13:05:25;;;;;;;2.47;1.80;;;;;;;;;;5053823;28;20312;-85
2022/05/21 13:07:54;;;;;;;1.77;1.67;;;;;;;;;;5056429;28;20660;-83
2022/05/21 13:10:25;;;;;;;2.50;2.30;;;;;;;;;;5055028;28;20201;-82
2022/05/21 13:12:56;;;;;;;2.10;1.90;;;;;;;;;;5056038;28;20573;-82
2022/05/21 13:15:29;;;;;;;2.28;1.90;;;;;;;;;;5056243;28;20669;-82
2022/05/21 13:18:14;;;;;;;1.98;1.88;;;;;;;;;;5056537;28;20257;-83
2022/05/21 13:20:52;;;;;;;1.90;1.80;;;;;;;;;;5055490;28;20193;-82
2022/05/21 13:23:48;;;;;;;3.05;2.15;;;;;;;;;;5055190;28;20225;-82
2022/05/21 13:26:21;;;;;;;2.58;1.85;;;;;;;;;;5056031;28;20201;-83
2022/05/21 13:28:49;;;;;;;2.03;1.80;;;;;;;;;;5055162;28;20193;-82
2022/05/21 13:31:19;;;;;;;2.28;2.10;;;;;;;;;;5055380;28;20201;-82
2022/05/21 13:33:51;;;;;;;1.83;1.67;;;;;;;;;;5055199;28;20229;-83
2022/05/21 13:36:22;;;;;;;4.05;2.42;;;;;;;;;;5055629;28;20182;-82
2022/05/21 13:38:53;;;;;;;3.75;2.20;;;;;;;;;;5056748;28;20269;-82
2022/05/21 13:41:31;;;;;;;1.70;1.60;;;;;;;;;;5056574;28;20654;-81
2022/05/21 13:43:59;;;;;;;2.33;2.00;;;;;;;;;;5056040;28;20225;-83
2022/05/21 13:46:29;;;;;;;2.17;1.70;;;;;;;;;;5056961;28;20209;-86
2022/05/21 13:49:01;;;;;;;4.78;2.30;;;;;;;;;;5057464;28;20182;-83
2022/05/21 13:51:31;;;;;;;2.30;2.10;;;;;;;;;;5056595;28;20197;-83
2022/05/21 13:53:59;;;;;;;1.75;1.65;;;;;;;;;;5056145;28;20706;-83
2022/05/21 13:56:36;;;;;;;2.00;1.80;;;;;;;;;;5056435;28;20241;-83
2022/05/21 13:59:14;;;;;;;4.43;2.03;;;;;;;;;;5056253;28;20565;-84
2022/05/21 14:01:44;;;;;;;3.00;1.73;;;;;;;;;;5056510;28;20182;-84
2022/05/21 14:04:29;;;;;;;2.78;2.22;;;;;;;;;;5057259;28;20248;-83
2022/05/21 14:06:56;;;;;;;1.95;1.85;;;;;;;;;;5056321;28;20248;-83
2022/05/21 14:09:26;;;;;;;2.85;2.50;;;;;;;;;;5056363;28;20197;-83
2022/05/21 14:11:56;;;;;;;2.25;1.75;;;;;;;;;;5056061;28;20201;-83
2022/05/21 14:14:27;;;;;;;2.60;1.85;;;;;;;;;;5055955;28;20642;-83
2022/05/21 14:17:14;;;;;;;1.70;1.60;;;;;;;;;;5055576;28;20204;-83
2022/05/21 14:19:59;;;;;;;1.42;1.30;;;;;;;;;;5056166;28;20205;-83
2022/05/21 14:22:27;;;;;;;1.77;1.50;;;;;;;;;;5055730;28;20205;-83
2022/05/21 14:24:54;;;;;;;1.73;1.63;;;;;;;;;;5056090;28;20563;-83
2022/05/21 14:27:26;;;;;;;2.92;1.60;;;;;;;;;;5056429;28;20201;-83
2022/05/21 14:29:55;;;;;;;2.78;1.58;;;;;;;;;;5056386;28;20186;-83
2022/05/21 14:32:34;;;;;;;2.78;2.05;;;;;;;;;;5055614;28;20194;-83
2022/05/21 14:35:17;;;;;;;2.10;1.60;;;;;;;;;;5055566;28;20225;-83
2022/05/21 14:37:47;;;;;;;2.08;1.70;;;;;;;;;;5054850;28;20193;-83
2022/05/21 14:40:16;;;;;;;1.58;1.48;;;;;;;;;;5055956;28;20244;-83
2022/05/21 14:42:44;;;;;;;2.03;1.27;;;;;;;;;;5054629;28;20662;-83
2022/05/21 14:45:17;;;;;;;1.98;1.75;;;;;;;;;;5055395;28;20225;-83
2022/05/21 14:47:52;;;;;;;2.35;1.40;;;;;;;;;;5055260;28;20182;-83
2022/05/21 14:53:10;;;;;;;3.10;1.98;;;;;;;;;;5054782;28;20196;-83
2022/05/21 14:55:38;;;;;;;1.83;1.73;;;;;;;;;;5055545;28;20221;-83
2022/05/21 14:58:06;;;;;;;1.33;1.23;;;;;;;;;;5055533;28;20226;-83
2022/05/21 15:00:33;;;;;;;2.45;1.52;;;;;;;;;;5054347;28;20647;-83
2022/05/21 15:03:00;;;;;;;2.35;2.00;;;;;;;;;;5054410;28;20202;-83
2022/05/21 15:05:30;;;;;;;2.17;1.83;;;;;;;;;;5055491;28;20278;-83
2022/05/21 15:07:59;;;;;;;4.05;1.90;;;;;;;;;;5054826;28;20198;-83
2022/05/21 15:10:27;;;;;;;1.92;1.55;;;;;;;;;;5053501;28;20209;-84
2022/05/21 15:12:54;;;;;;;1.80;1.70;;;;;;;;;;5054324;28;20205;-84
2022/05/21 15:15:23;;;;;;;3.03;2.22;;;;;;;;;;5054119;28;20217;-83
2022/05/21 15:17:51;;;;;;;4.55;1.83;;;;;;;;;;5054429;28;20173;-84
2022/05/21 15:20:20;;;;;;;2.30;1.70;;;;;;;;;;5054779;28;20551;-84
2022/05/21 15:22:52;;;;;;;2.05;1.70;;;;;;;;;;5054266;28;20214;-84
2022/05/21 15:25:22;;;;;;;2.30;1.60;;;;;;;;;;5054324;28;20229;-84
2022/05/21 15:27:50;;;;;;;1.85;1.75;;;;;;;;;;5055278;28;20189;-84
2022/05/21 15:30:19;;;;;;;1.58;1.40;;;;;;;;;;5055544;28;20208;-83
2022/05/21 15:32:47;;;;;;;3.13;1.60;;;;;;;;;;5054392;28;20201;-84
2022/05/21 15:35:15;;;;;;;2.65;1.95;;;;;;;;;;5054929;28;20228;-84
2022/05/21 15:37:43;;;;;;;2.10;1.90;;;;;;;;;;5053941;28;20201;-84
2022/05/21 15:40:13;;;;;;;2.47;1.80;;;;;;;;;;5053763;28;20213;-84
2022/05/21 15:42:44;;;;;;;3.83;1.92;;;;;;;;;;5054686;28;20185;-84
2022/05/21 15:45:12;;;;;;;3.20;1.80;;;;;;;;;;5058705;28;20662;-84